sensor_id;sensor_type;location;lat;lon;timestamp;P1;P2;P0
65556;PMS3003;52200;53.490;14.376;2024-02-21T00:00:01;26.50;13.50;6.00
65556;PMS3003;52200;53.490;14.376;2024-02-21T00:02:27;21.80;9.20;3.00
65556;PMS3003;52200;53.490;14.376;2024-02-21T00:04:52;19.50;6.75;3.00
65556;PMS3003;52200;53.490;14.376;2024-02-21T00:07:18;25.50;11.00;4.00
65556;PMS3003;52200;53.490;14.376;2024-02-21T00:09:43;16.75;7.00;3.00
65556;PMS3003;52200;53.490;14.376;2024-02-21T00:12:08;22.50;11.00;4.25
65556;PMS3003;52200;53.490;14.376;2024-02-21T00:14:34;22.25;12.00;4.00
65556;PMS3003;52200;53.490;14.376;2024-02-21T00:16:59;31.25;14.00;7.00
65556;PMS3003;52200;53.490;14.376;2024-02-21T00:19:25;28.00;16.75;7.00
65556;PMS3003;52200;53.490;14.376;2024-02-21T00:21:50;21.50;11.50;4.00
65556;PMS3003;52200;53.490;14.376;2024-02-21T00:24:15;18.25;8.00;3.50
65556;PMS3003;52200;53.490;14.376;2024-02-21T00:26:41;26.25;13.50;6.25
65556;PMS3003;52200;53.490;14.376;2024-02-21T00:29:06;23.00;9.25;4.00
65556;PMS3003;52200;53.490;14.376;2024-02-21T00:31:31;18.25;9.00;3.75
65556;PMS3003;52200;53.490;14.376;2024-02-21T00:33:57;17.00;7.25;2.50
65556;PMS3003;52200;53.490;14.376;2024-02-21T00:36:23;29.50;16.50;7.00
65556;PMS3003;52200;53.490;14.376;2024-02-21T00:38:48;26.75;16.00;7.75
65556;PMS3003;52200;53.490;14.376;2024-02-21T00:41:13;41.50;23.25;10.75
65556;PMS3003;52200;53.490;14.376;2024-02-21T00:43:39;37.25;22.75;10.50
65556;PMS3003;52200;53.490;14.376;2024-02-21T00:46:05;38.50;23.50;8.00
65556;PMS3003;52200;53.490;14.376;2024-02-21T00:48:31;28.60;17.00;9.00
65556;PMS3003;52200;53.490;14.376;2024-02-21T00:50:56;36.50;20.25;8.25
65556;PMS3003;52200;53.490;14.376;2024-02-21T00:53:22;31.25;16.00;6.75
65556;PMS3003;52200;53.490;14.376;2024-02-21T00:55:47;23.00;10.50;3.00
65556;PMS3003;52200;53.490;14.376;2024-02-21T00:58:13;22.00;12.25;4.25
65556;PMS3003;52200;53.490;14.376;2024-02-21T01:00:38;20.75;8.50;3.75
65556;PMS3003;52200;53.490;14.376;2024-02-21T01:03:03;22.75;12.00;4.00
65556;PMS3003;52200;53.490;14.376;2024-02-21T01:05:29;21.50;8.00;4.75
65556;PMS3003;52200;53.490;14.376;2024-02-21T01:07:54;21.50;10.75;5.50
65556;PMS3003;52200;53.490;14.376;2024-02-21T01:10:20;24.50;12.75;6.25
65556;PMS3003;52200;53.490;14.376;2024-02-21T01:12:45;23.00;9.00;4.00
65556;PMS3003;52200;53.490;14.376;2024-02-21T01:15:10;21.50;12.25;6.50
65556;PMS3003;52200;53.490;14.376;2024-02-21T01:17:36;25.60;11.60;3.40
65556;PMS3003;52200;53.490;14.376;2024-02-21T01:20:02;19.75;11.00;6.00
65556;PMS3003;52200;53.490;14.376;2024-02-21T01:22:30;25.00;14.20;6.80
65556;PMS3003;52200;53.490;14.376;2024-02-21T01:24:56;22.00;11.75;7.25
65556;PMS3003;52200;53.490;14.376;2024-02-21T01:27:21;30.75;18.25;7.00
65556;PMS3003;52200;53.490;14.376;2024-02-21T01:29:47;21.25;12.00;6.25
65556;PMS3003;52200;53.490;14.376;2024-02-21T01:32:14;21.00;12.40;5.40
65556;PMS3003;52200;53.490;14.376;2024-02-21T01:34:40;27.20;13.80;6.20
65556;PMS3003;52200;53.490;14.376;2024-02-21T01:37:06;25.75;12.75;7.25
65556;PMS3003;52200;53.490;14.376;2024-02-21T01:39:32;28.40;14.60;7.00
65556;PMS3003;52200;53.490;14.376;2024-02-21T01:41:58;27.80;14.20;6.80
65556;PMS3003;52200;53.490;14.376;2024-02-21T01:44:24;24.00;13.75;6.00
65556;PMS3003;52200;53.490;14.376;2024-02-21T01:46:49;28.00;18.75;7.75
65556;PMS3003;52200;53.490;14.376;2024-02-21T01:49:17;26.80;14.40;8.00
65556;PMS3003;52200;53.490;14.376;2024-02-21T01:51:42;28.40;17.80;7.40
65556;PMS3003;52200;53.490;14.376;2024-02-21T01:54:09;23.40;14.20;6.80
65556;PMS3003;52200;53.490;14.376;2024-02-21T01:56:36;26.20;16.40;8.40
65556;PMS3003;52200;53.490;14.376;2024-02-21T01:59:02;25.60;16.40;8.40
65556;PMS3003;52200;53.490;14.376;2024-02-21T02:01:27;29.00;17.75;10.25
65556;PMS3003;52200;53.490;14.376;2024-02-21T02:03:54;29.80;17.20;8.60
65556;PMS3003;52200;53.490;14.376;2024-02-21T02:06:20;28.60;16.60;7.40
65556;PMS3003;52200;53.490;14.376;2024-02-21T02:08:46;27.50;12.75;7.00
65556;PMS3003;52200;53.490;14.376;2024-02-21T02:11:13;31.75;19.25;9.75
65556;PMS3003;52200;53.490;14.376;2024-02-21T02:13:40;33.80;17.40;8.00
65556;PMS3003;52200;53.490;14.376;2024-02-21T02:16:05;27.75;16.25;8.00
65556;PMS3003;52200;53.490;14.376;2024-02-21T02:18:31;34.25;17.75;9.00
65556;PMS3003;52200;53.490;14.376;2024-02-21T02:20:56;28.25;15.50;8.25
65556;PMS3003;52200;53.490;14.376;2024-02-21T02:23:23;32.75;18.75;9.00
65556;PMS3003;52200;53.490;14.376;2024-02-21T02:25:57;32.60;19.80;9.80
65556;PMS3003;52200;53.490;14.376;2024-02-21T02:28:22;26.80;18.40;10.20
65556;PMS3003;52200;53.490;14.376;2024-02-21T02:30:49;33.50;20.25;9.25
65556;PMS3003;52200;53.490;14.376;2024-02-21T02:33:15;38.20;18.80;10.40
65556;PMS3003;52200;53.490;14.376;2024-02-21T02:35:42;32.20;19.80;11.00
65556;PMS3003;52200;53.490;14.376;2024-02-21T02:38:08;45.75;27.75;12.75
65556;PMS3003;52200;53.490;14.376;2024-02-21T02:40:34;40.40;25.20;12.00
65556;PMS3003;52200;53.490;14.376;2024-02-21T02:43:00;37.00;21.80;11.60
65556;PMS3003;52200;53.490;14.376;2024-02-21T02:45:26;36.00;22.40;11.00
65556;PMS3003;52200;53.490;14.376;2024-02-21T02:47:52;36.50;23.25;13.00
65556;PMS3003;52200;53.490;14.376;2024-02-21T02:50:22;35.40;22.00;11.80
65556;PMS3003;52200;53.490;14.376;2024-02-21T02:52:51;37.80;23.60;13.00
65556;PMS3003;52200;53.490;14.376;2024-02-21T02:55:18;32.20;18.80;12.40
65556;PMS3003;52200;53.490;14.376;2024-02-21T02:57:43;38.60;24.00;13.00
65556;PMS3003;52200;53.490;14.376;2024-02-21T03:00:12;35.50;23.75;13.50
65556;PMS3003;52200;53.490;14.376;2024-02-21T03:02:39;37.80;27.20;14.80
65556;PMS3003;52200;53.490;14.376;2024-02-21T03:05:13;37.80;24.60;12.60
65556;PMS3003;52200;53.490;14.376;2024-02-21T03:07:39;36.20;22.40;13.00
65556;PMS3003;52200;53.490;14.376;2024-02-21T03:10:05;47.20;26.20;15.80
65556;PMS3003;52200;53.490;14.376;2024-02-21T03:12:32;45.20;25.60;13.00
65556;PMS3003;52200;53.490;14.376;2024-02-21T03:14:57;39.00;26.50;13.25
65556;PMS3003;52200;53.490;14.376;2024-02-21T03:17:23;37.50;23.25;12.75
65556;PMS3003;52200;53.490;14.376;2024-02-21T03:19:48;38.75;26.25;14.00
65556;PMS3003;52200;53.490;14.376;2024-02-21T03:22:15;38.00;24.20;14.00
65556;PMS3003;52200;53.490;14.376;2024-02-21T03:24:41;44.80;29.60;15.20
65556;PMS3003;52200;53.490;14.376;2024-02-21T03:27:07;37.80;23.20;12.40
65556;PMS3003;52200;53.490;14.376;2024-02-21T03:29:33;38.60;22.00;12.20
65556;PMS3003;52200;53.490;14.376;2024-02-21T03:31:58;37.00;22.50;12.25
65556;PMS3003;52200;53.490;14.376;2024-02-21T03:34:24;38.25;22.00;13.25
65556;PMS3003;52200;53.490;14.376;2024-02-21T03:36:49;35.25;21.00;13.75
65556;PMS3003;52200;53.490;14.376;2024-02-21T03:39:15;34.50;20.50;13.00
65556;PMS3003;52200;53.490;14.376;2024-02-21T03:41:40;43.25;25.00;13.25
65556;PMS3003;52200;53.490;14.376;2024-02-21T03:44:06;36.50;25.00;12.00
65556;PMS3003;52200;53.490;14.376;2024-02-21T03:46:31;36.75;24.50;13.00
65556;PMS3003;52200;53.490;14.376;2024-02-21T03:48:57;33.25;18.00;11.00
65556;PMS3003;52200;53.490;14.376;2024-02-21T03:51:22;42.25;24.75;12.00
65556;PMS3003;52200;53.490;14.376;2024-02-21T03:53:48;37.00;25.00;11.25
65556;PMS3003;52200;53.490;14.376;2024-02-21T03:56:13;38.25;22.25;12.25
65556;PMS3003;52200;53.490;14.376;2024-02-21T03:58:38;36.75;22.25;11.00
65556;PMS3003;52200;53.490;14.376;2024-02-21T04:01:04;32.00;21.50;12.00
65556;PMS3003;52200;53.490;14.376;2024-02-21T04:03:30;39.75;24.75;11.25
65556;PMS3003;52200;53.490;14.376;2024-02-21T04:05:55;37.40;23.40;12.00
65556;PMS3003;52200;53.490;14.376;2024-02-21T04:08:22;32.50;21.00;12.50
65556;PMS3003;52200;53.490;14.376;2024-02-21T04:10:47;39.20;19.40;11.40
65556;PMS3003;52200;53.490;14.376;2024-02-21T04:13:13;35.25;23.50;12.75
65556;PMS3003;52200;53.490;14.376;2024-02-21T04:15:38;34.25;22.50;12.25
65556;PMS3003;52200;53.490;14.376;2024-02-21T04:18:04;33.00;21.50;9.25
65556;PMS3003;52200;53.490;14.376;2024-02-21T04:20:30;36.50;21.25;11.50
65556;PMS3003;52200;53.490;14.376;2024-02-21T04:22:56;35.00;20.50;10.00
65556;PMS3003;52200;53.490;14.376;2024-02-21T04:25:21;36.40;21.80;11.00
65556;PMS3003;52200;53.490;14.376;2024-02-21T04:27:47;31.25;21.25;12.00
65556;PMS3003;52200;53.490;14.376;2024-02-21T04:30:13;30.75;20.25;11.25
65556;PMS3003;52200;53.490;14.376;2024-02-21T04:32:38;30.75;21.50;11.75
65556;PMS3003;52200;53.490;14.376;2024-02-21T04:35:04;37.60;22.40;11.00
65556;PMS3003;52200;53.490;14.376;2024-02-21T04:37:30;38.60;23.20;9.20
65556;PMS3003;52200;53.490;14.376;2024-02-21T04:39:56;38.75;22.75;12.00
65556;PMS3003;52200;53.490;14.376;2024-02-21T04:42:21;35.75;23.50;14.00
65556;PMS3003;52200;53.490;14.376;2024-02-21T04:44:47;32.25;22.50;10.75
65556;PMS3003;52200;53.490;14.376;2024-02-21T04:47:12;43.75;23.50;11.50
65556;PMS3003;52200;53.490;14.376;2024-02-21T04:49:38;37.00;18.25;11.25
65556;PMS3003;52200;53.490;14.376;2024-02-21T04:52:04;35.75;21.75;12.00
65556;PMS3003;52200;53.490;14.376;2024-02-21T04:54:29;33.00;18.25;12.25
65556;PMS3003;52200;53.490;14.376;2024-02-21T04:56:55;33.00;21.50;11.00
65556;PMS3003;52200;53.490;14.376;2024-02-21T04:59:20;36.25;22.00;10.25
65556;PMS3003;52200;53.490;14.376;2024-02-21T05:01:46;32.25;19.00;11.00
65556;PMS3003;52200;53.490;14.376;2024-02-21T05:04:11;32.00;18.00;10.25
65556;PMS3003;52200;53.490;14.376;2024-02-21T05:06:37;36.25;19.50;8.75
65556;PMS3003;52200;53.490;14.376;2024-02-21T05:09:04;33.00;20.40;11.80
65556;PMS3003;52200;53.490;14.376;2024-02-21T05:11:30;30.00;19.00;11.00
65556;PMS3003;52200;53.490;14.376;2024-02-21T05:13:56;38.00;21.00;11.00
65556;PMS3003;52200;53.490;14.376;2024-02-21T05:16:22;32.25;19.00;10.50
65556;PMS3003;52200;53.490;14.376;2024-02-21T05:18:47;31.25;17.00;9.00
65556;PMS3003;52200;53.490;14.376;2024-02-21T05:21:13;32.50;21.25;10.75
65556;PMS3003;52200;53.490;14.376;2024-02-21T05:23:38;27.25;16.75;8.75
65556;PMS3003;52200;53.490;14.376;2024-02-21T05:26:07;25.00;17.40;9.60
65556;PMS3003;52200;53.490;14.376;2024-02-21T05:28:33;32.50;21.25;10.50
65556;PMS3003;52200;53.490;14.376;2024-02-21T05:30:58;25.00;16.50;9.00
65556;PMS3003;52200;53.490;14.376;2024-02-21T05:33:24;28.25;17.75;10.75
65556;PMS3003;52200;53.490;14.376;2024-02-21T05:35:50;30.00;17.80;10.00
65556;PMS3003;52200;53.490;14.376;2024-02-21T05:38:16;30.40;21.40;11.60
65556;PMS3003;52200;53.490;14.376;2024-02-21T05:40:42;35.00;19.60;11.20
65556;PMS3003;52200;53.490;14.376;2024-02-21T05:43:09;34.00;21.00;11.20
65556;PMS3003;52200;53.490;14.376;2024-02-21T05:45:35;30.00;21.25;12.00
65556;PMS3003;52200;53.490;14.376;2024-02-21T05:48:01;33.40;20.20;11.40
65556;PMS3003;52200;53.490;14.376;2024-02-21T05:50:27;31.60;21.20;12.00
65556;PMS3003;52200;53.490;14.376;2024-02-21T05:52:56;34.25;22.50;12.75
65556;PMS3003;52200;53.490;14.376;2024-02-21T05:55:22;32.80;22.00;11.40
65556;PMS3003;52200;53.490;14.376;2024-02-21T05:57:49;34.60;21.60;12.60
65556;PMS3003;52200;53.490;14.376;2024-02-21T06:00:15;33.40;19.40;12.00
65556;PMS3003;52200;53.490;14.376;2024-02-21T06:02:41;36.00;22.60;12.00
65556;PMS3003;52200;53.490;14.376;2024-02-21T06:05:07;34.00;22.00;12.00
65556;PMS3003;52200;53.490;14.376;2024-02-21T06:07:33;27.80;19.40;11.40
65556;PMS3003;52200;53.490;14.376;2024-02-21T06:10:02;31.60;22.40;12.60
65556;PMS3003;52200;53.490;14.376;2024-02-21T06:12:28;30.20;21.20;12.00
65556;PMS3003;52200;53.490;14.376;2024-02-21T06:14:53;30.00;20.75;11.75
65556;PMS3003;52200;53.490;14.376;2024-02-21T06:17:19;34.00;22.00;12.00
65556;PMS3003;52200;53.490;14.376;2024-02-21T06:19:44;26.75;17.75;11.25
65556;PMS3003;52200;53.490;14.376;2024-02-21T06:22:10;35.25;23.00;13.75
65556;PMS3003;52200;53.490;14.376;2024-02-21T06:24:36;37.20;22.00;13.20
65556;PMS3003;52200;53.490;14.376;2024-02-21T06:27:03;43.20;22.60;12.60
65556;PMS3003;52200;53.490;14.376;2024-02-21T06:29:30;35.00;23.00;12.80
65556;PMS3003;52200;53.490;14.376;2024-02-21T06:31:56;43.50;25.50;12.50
65556;PMS3003;52200;53.490;14.376;2024-02-21T06:34:22;34.50;23.50;13.25
65556;PMS3003;52200;53.490;14.376;2024-02-21T06:36:47;35.50;25.50;13.00
65556;PMS3003;52200;53.490;14.376;2024-02-21T06:39:13;37.75;27.25;14.00
65556;PMS3003;52200;53.490;14.376;2024-02-21T06:41:38;35.75;22.00;12.75
65556;PMS3003;52200;53.490;14.376;2024-02-21T06:44:05;36.40;25.80;14.80
65556;PMS3003;52200;53.490;14.376;2024-02-21T06:46:30;34.25;23.50;13.25
65556;PMS3003;52200;53.490;14.376;2024-02-21T06:48:58;38.00;23.40;13.40
65556;PMS3003;52200;53.490;14.376;2024-02-21T06:51:25;36.60;26.80;13.60
65556;PMS3003;52200;53.490;14.376;2024-02-21T06:53:51;35.00;22.80;12.40
65556;PMS3003;52200;53.490;14.376;2024-02-21T06:56:17;38.75;26.00;13.00
65556;PMS3003;52200;53.490;14.376;2024-02-21T06:58:42;34.00;22.00;13.00
65556;PMS3003;52200;53.490;14.376;2024-02-21T07:01:08;36.00;25.75;14.25
65556;PMS3003;52200;53.490;14.376;2024-02-21T07:03:34;38.00;23.25;14.00
65556;PMS3003;52200;53.490;14.376;2024-02-21T07:05:59;38.00;24.25;14.00
65556;PMS3003;52200;53.490;14.376;2024-02-21T07:08:25;39.75;28.25;14.25
65556;PMS3003;52200;53.490;14.376;2024-02-21T07:10:51;36.20;24.20;13.00
65556;PMS3003;52200;53.490;14.376;2024-02-21T07:13:16;32.75;22.25;12.25
65556;PMS3003;52200;53.490;14.376;2024-02-21T07:15:42;39.00;27.50;14.75
65556;PMS3003;52200;53.490;14.376;2024-02-21T07:18:08;38.25;24.25;13.50
65556;PMS3003;52200;53.490;14.376;2024-02-21T07:20:33;32.50;21.00;13.00
65556;PMS3003;52200;53.490;14.376;2024-02-21T07:23:01;37.60;21.80;13.60
65556;PMS3003;52200;53.490;14.376;2024-02-21T07:25:27;39.75;27.75;14.00
65556;PMS3003;52200;53.490;14.376;2024-02-21T07:27:53;35.00;22.25;13.25
65556;PMS3003;52200;53.490;14.376;2024-02-21T07:30:18;35.25;26.00;13.25
65556;PMS3003;52200;53.490;14.376;2024-02-21T07:32:44;37.75;25.00;14.50
65556;PMS3003;52200;53.490;14.376;2024-02-21T07:35:09;42.00;27.00;14.25
65556;PMS3003;52200;53.490;14.376;2024-02-21T07:37:37;33.60;21.00;12.40
65556;PMS3003;52200;53.490;14.376;2024-02-21T07:40:06;40.25;26.00;14.00
65556;PMS3003;52200;53.490;14.376;2024-02-21T07:42:37;38.00;23.40;13.00
65556;PMS3003;52200;53.490;14.376;2024-02-21T07:45:02;35.25;22.25;12.75
65556;PMS3003;52200;53.490;14.376;2024-02-21T07:47:28;37.60;25.40;13.60
65556;PMS3003;52200;53.490;14.376;2024-02-21T07:49:54;36.75;25.75;14.50
65556;PMS3003;52200;53.490;14.376;2024-02-21T07:52:19;36.25;23.25;14.00
65556;PMS3003;52200;53.490;14.376;2024-02-21T07:54:45;37.50;24.00;14.00
65556;PMS3003;52200;53.490;14.376;2024-02-21T07:57:10;32.25;21.50;13.25
65556;PMS3003;52200;53.490;14.376;2024-02-21T07:59:36;39.00;24.00;12.75
65556;PMS3003;52200;53.490;14.376;2024-02-21T08:02:01;36.75;22.50;13.75
65556;PMS3003;52200;53.490;14.376;2024-02-21T08:04:27;33.40;20.20;10.60
65556;PMS3003;52200;53.490;14.376;2024-02-21T08:06:53;35.75;25.00;13.75
65556;PMS3003;52200;53.490;14.376;2024-02-21T08:09:26;35.60;23.40;13.00
65556;PMS3003;52200;53.490;14.376;2024-02-21T08:11:52;44.60;24.60;14.20
65556;PMS3003;52200;53.490;14.376;2024-02-21T08:14:19;34.20;23.80;12.80
65556;PMS3003;52200;53.490;14.376;2024-02-21T08:16:44;38.00;24.00;13.25
65556;PMS3003;52200;53.490;14.376;2024-02-21T08:19:10;39.75;25.00;14.00
65556;PMS3003;52200;53.490;14.376;2024-02-21T08:21:36;35.40;23.40;12.20
65556;PMS3003;52200;53.490;14.376;2024-02-21T08:24:01;28.25;18.75;12.00
65556;PMS3003;52200;53.490;14.376;2024-02-21T08:26:27;35.00;23.50;13.00
65556;PMS3003;52200;53.490;14.376;2024-02-21T08:28:55;31.80;21.60;12.60
65556;PMS3003;52200;53.490;14.376;2024-02-21T08:31:23;33.80;18.60;9.20
65556;PMS3003;52200;53.490;14.376;2024-02-21T08:33:55;30.60;20.00;10.40
65556;PMS3003;52200;53.490;14.376;2024-02-21T08:36:27;35.40;20.40;12.40
65556;PMS3003;52200;53.490;14.376;2024-02-21T08:38:52;33.50;24.00;12.50
65556;PMS3003;52200;53.490;14.376;2024-02-21T08:41:18;32.50;22.00;10.25
65556;PMS3003;52200;53.490;14.376;2024-02-21T08:43:43;29.00;20.00;10.25
65556;PMS3003;52200;53.490;14.376;2024-02-21T08:46:08;34.00;22.00;13.25
65556;PMS3003;52200;53.490;14.376;2024-02-21T08:48:34;32.00;16.00;11.50
65556;PMS3003;52200;53.490;14.376;2024-02-21T08:50:59;35.00;21.75;10.00
65556;PMS3003;52200;53.490;14.376;2024-02-21T08:53:25;34.50;19.50;11.75
65556;PMS3003;52200;53.490;14.376;2024-02-21T08:55:50;35.50;22.75;12.00
65556;PMS3003;52200;53.490;14.376;2024-02-21T08:58:16;35.75;20.00;12.50
65556;PMS3003;52200;53.490;14.376;2024-02-21T09:00:41;36.50;24.25;12.50
65556;PMS3003;52200;53.490;14.376;2024-02-21T09:03:07;29.50;20.00;10.25
65556;PMS3003;52200;53.490;14.376;2024-02-21T09:05:32;25.25;17.25;10.00
65556;PMS3003;52200;53.490;14.376;2024-02-21T09:08:00;37.40;19.20;10.00
65556;PMS3003;52200;53.490;14.376;2024-02-21T09:10:25;36.00;20.00;12.00
65556;PMS3003;52200;53.490;14.376;2024-02-21T09:12:51;32.25;21.50;13.00
65556;PMS3003;52200;53.490;14.376;2024-02-21T09:15:16;31.75;21.25;10.50
65556;PMS3003;52200;53.490;14.376;2024-02-21T09:17:42;30.00;21.00;10.00
65556;PMS3003;52200;53.490;14.376;2024-02-21T09:20:07;28.25;19.50;11.75
65556;PMS3003;52200;53.490;14.376;2024-02-21T09:22:34;30.20;19.40;12.60
65556;PMS3003;52200;53.490;14.376;2024-02-21T09:25:01;29.20;20.00;11.20
65556;PMS3003;52200;53.490;14.376;2024-02-21T09:27:28;32.60;20.80;10.40
65556;PMS3003;52200;53.490;14.376;2024-02-21T09:29:53;33.25;21.25;10.75
65556;PMS3003;52200;53.490;14.376;2024-02-21T09:32:19;29.00;18.75;10.00
65556;PMS3003;52200;53.490;14.376;2024-02-21T09:34:44;32.50;21.50;12.50
65556;PMS3003;52200;53.490;14.376;2024-02-21T09:37:10;32.25;20.25;11.00
65556;PMS3003;52200;53.490;14.376;2024-02-21T09:39:36;35.75;19.75;11.25
65556;PMS3003;52200;53.490;14.376;2024-02-21T09:42:07;29.50;20.75;10.25
65556;PMS3003;52200;53.490;14.376;2024-02-21T09:44:36;36.00;21.20;10.20
65556;PMS3003;52200;53.490;14.376;2024-02-21T09:47:19;34.00;22.40;12.20
65556;PMS3003;52200;53.490;14.376;2024-02-21T09:49:49;33.60;21.00;11.00
65556;PMS3003;52200;53.490;14.376;2024-02-21T09:52:17;25.40;17.40;9.60
65556;PMS3003;52200;53.490;14.376;2024-02-21T09:54:45;35.40;20.80;10.60
65556;PMS3003;52200;53.490;14.376;2024-02-21T09:57:13;33.40;18.80;9.60
65556;PMS3003;52200;53.490;14.376;2024-02-21T09:59:40;32.60;19.60;10.40
65556;PMS3003;52200;53.490;14.376;2024-02-21T10:02:08;30.00;18.20;8.60
65556;PMS3003;52200;53.490;14.376;2024-02-21T10:04:34;28.25;16.25;10.00
65556;PMS3003;52200;53.490;14.376;2024-02-21T10:06:59;27.00;18.00;9.25
65556;PMS3003;52200;53.490;14.376;2024-02-21T10:09:25;32.00;18.75;10.75
65556;PMS3003;52200;53.490;14.376;2024-02-21T10:12:10;28.80;16.00;9.60
65556;PMS3003;52200;53.490;14.376;2024-02-21T10:14:37;29.40;18.40;9.80
65556;PMS3003;52200;53.490;14.376;2024-02-21T10:17:02;32.00;16.40;9.80
65556;PMS3003;52200;53.490;14.376;2024-02-21T10:19:30;22.40;15.40;8.80
65556;PMS3003;52200;53.490;14.376;2024-02-21T10:22:02;25.25;16.00;8.50
65556;PMS3003;52200;53.490;14.376;2024-02-21T10:24:29;24.60;15.00;7.20
65556;PMS3003;52200;53.490;14.376;2024-02-21T10:27:07;23.20;13.40;8.00
65556;PMS3003;52200;53.490;14.376;2024-02-21T10:29:35;22.80;14.40;7.80
65556;PMS3003;52200;53.490;14.376;2024-02-21T10:32:08;20.00;12.80;5.40
65556;PMS3003;52200;53.490;14.376;2024-02-21T10:34:37;19.80;12.00;7.40
65556;PMS3003;52200;53.490;14.376;2024-02-21T10:37:04;23.20;15.20;8.00
65556;PMS3003;52200;53.490;14.376;2024-02-21T10:39:35;25.00;12.00;5.80
65556;PMS3003;52200;53.490;14.376;2024-02-21T10:42:02;18.60;11.20;6.60
65556;PMS3003;52200;53.490;14.376;2024-02-21T10:44:29;20.80;11.80;5.20
65556;PMS3003;52200;53.490;14.376;2024-02-21T10:46:56;19.00;9.80;5.00
65556;PMS3003;52200;53.490;14.376;2024-02-21T10:49:23;21.20;12.20;6.00
65556;PMS3003;52200;53.490;14.376;2024-02-21T10:52:14;19.00;12.20;7.40
65556;PMS3003;52200;53.490;14.376;2024-02-21T10:54:47;22.00;11.80;5.00
65556;PMS3003;52200;53.490;14.376;2024-02-21T10:57:21;20.80;12.80;7.00
65556;PMS3003;52200;53.490;14.376;2024-02-21T10:59:48;20.60;13.60;5.80
65556;PMS3003;52200;53.490;14.376;2024-02-21T11:02:14;24.20;12.20;5.80
65556;PMS3003;52200;53.490;14.376;2024-02-21T11:04:40;24.00;14.00;7.60
65556;PMS3003;52200;53.490;14.376;2024-02-21T11:07:08;19.00;11.80;6.80
65556;PMS3003;52200;53.490;14.376;2024-02-21T11:09:34;20.00;11.40;4.60
65556;PMS3003;52200;53.490;14.376;2024-02-21T11:12:03;21.50;12.50;7.00
65556;PMS3003;52200;53.490;14.376;2024-02-21T11:14:30;19.80;9.80;5.00
65556;PMS3003;52200;53.490;14.376;2024-02-21T11:17:13;17.00;9.80;4.40
65556;PMS3003;52200;53.490;14.376;2024-02-21T11:19:43;18.00;10.00;5.00
65556;PMS3003;52200;53.490;14.376;2024-02-21T11:22:15;17.50;9.50;4.50
65556;PMS3003;52200;53.490;14.376;2024-02-21T11:24:42;19.40;11.20;5.80
65556;PMS3003;52200;53.490;14.376;2024-02-21T11:27:21;17.20;9.00;4.40
65556;PMS3003;52200;53.490;14.376;2024-02-21T11:29:57;14.60;8.00;4.00
65556;PMS3003;52200;53.490;14.376;2024-02-21T11:32:23;18.20;9.60;4.40
65556;PMS3003;52200;53.490;14.376;2024-02-21T11:37:19;16.60;7.60;4.20
65556;PMS3003;52200;53.490;14.376;2024-02-21T11:39:45;18.50;8.75;4.50
65556;PMS3003;52200;53.490;14.376;2024-02-21T11:42:11;17.50;10.00;4.00
65556;PMS3003;52200;53.490;14.376;2024-02-21T11:44:38;16.20;7.80;3.20
65556;PMS3003;52200;53.490;14.376;2024-02-21T11:47:05;16.60;8.80;5.00
65556;PMS3003;52200;53.490;14.376;2024-02-21T11:49:37;16.60;7.20;3.80
65556;PMS3003;52200;53.490;14.376;2024-02-21T11:52:06;17.00;9.20;3.20
65556;PMS3003;52200;53.490;14.376;2024-02-21T11:54:32;13.50;6.50;3.00
65556;PMS3003;52200;53.490;14.376;2024-02-21T11:56:59;13.20;6.00;3.20
65556;PMS3003;52200;53.490;14.376;2024-02-21T11:59:25;14.80;8.00;4.00
65556;PMS3003;52200;53.490;14.376;2024-02-21T12:01:52;16.00;7.80;2.00
65556;PMS3003;52200;53.490;14.376;2024-02-21T12:04:18;12.40;4.60;3.00
65556;PMS3003;52200;53.490;14.376;2024-02-21T12:06:45;12.60;6.00;3.00
65556;PMS3003;52200;53.490;14.376;2024-02-21T12:09:14;12.40;5.00;3.00
65556;PMS3003;52200;53.490;14.376;2024-02-21T12:11:43;12.80;6.40;3.00
65556;PMS3003;52200;53.490;14.376;2024-02-21T12:14:09;13.00;5.40;3.00
65556;PMS3003;52200;53.490;14.376;2024-02-21T12:16:36;12.00;5.40;2.00
65556;PMS3003;52200;53.490;14.376;2024-02-21T12:19:04;13.20;5.40;2.80
65556;PMS3003;52200;53.490;14.376;2024-02-21T12:21:31;15.50;6.75;3.00
65556;PMS3003;52200;53.490;14.376;2024-02-21T12:24:22;12.60;6.00;3.00
65556;PMS3003;52200;53.490;14.376;2024-02-21T12:26:48;12.60;5.80;2.00
65556;PMS3003;52200;53.490;14.376;2024-02-21T12:29:14;11.60;4.80;2.60
65556;PMS3003;52200;53.490;14.376;2024-02-21T12:31:40;12.75;5.00;2.00
65556;PMS3003;52200;53.490;14.376;2024-02-21T12:34:05;13.50;6.50;2.75
65556;PMS3003;52200;53.490;14.376;2024-02-21T12:36:31;14.20;5.80;2.20
65556;PMS3003;52200;53.490;14.376;2024-02-21T12:38:58;12.60;5.80;2.00
65556;PMS3003;52200;53.490;14.376;2024-02-21T12:41:24;13.00;4.20;3.00
65556;PMS3003;52200;53.490;14.376;2024-02-21T12:43:51;11.00;5.00;2.20
65556;PMS3003;52200;53.490;14.376;2024-02-21T12:46:18;14.40;7.00;2.80
65556;PMS3003;52200;53.490;14.376;2024-02-21T12:48:43;13.50;4.25;2.50
65556;PMS3003;52200;53.490;14.376;2024-02-21T12:51:08;14.00;5.00;2.75
65556;PMS3003;52200;53.490;14.376;2024-02-21T12:53:34;12.00;4.00;3.00
65556;PMS3003;52200;53.490;14.376;2024-02-21T12:56:00;13.00;6.75;2.75
65556;PMS3003;52200;53.490;14.376;2024-02-21T12:58:25;13.50;5.75;3.00
65556;PMS3003;52200;53.490;14.376;2024-02-21T13:00:51;14.00;5.25;2.25
65556;PMS3003;52200;53.490;14.376;2024-02-21T13:03:17;12.80;3.80;2.00
65556;PMS3003;52200;53.490;14.376;2024-02-21T13:05:43;13.00;6.75;3.00
65556;PMS3003;52200;53.490;14.376;2024-02-21T13:08:09;12.75;6.00;2.25
65556;PMS3003;52200;53.490;14.376;2024-02-21T13:10:34;11.20;3.80;2.00
65556;PMS3003;52200;53.490;14.376;2024-02-21T13:13:00;11.00;4.50;2.25
65556;PMS3003;52200;53.490;14.376;2024-02-21T13:15:26;14.60;9.40;3.00
65556;PMS3003;52200;53.490;14.376;2024-02-21T13:17:53;14.20;6.20;2.00
65556;PMS3003;52200;53.490;14.376;2024-02-21T13:20:19;11.20;4.40;2.40
65556;PMS3003;52200;53.490;14.376;2024-02-21T13:22:45;12.80;4.20;1.40
65556;PMS3003;52200;53.490;14.376;2024-02-21T13:25:10;11.00;4.00;2.00
65556;PMS3003;52200;53.490;14.376;2024-02-21T13:27:36;11.20;4.40;2.00
65556;PMS3003;52200;53.490;14.376;2024-02-21T13:30:02;10.75;4.00;2.00
65556;PMS3003;52200;53.490;14.376;2024-02-21T13:32:31;11.80;3.80;2.00
65556;PMS3003;52200;53.490;14.376;2024-02-21T13:34:57;13.20;3.80;2.00
65556;PMS3003;52200;53.490;14.376;2024-02-21T13:37:26;13.00;4.40;1.80
65556;PMS3003;52200;53.490;14.376;2024-02-21T13:39:52;13.40;5.20;2.00